createdAt,value
2019-01-08T00:01:10.215Z,96.60
2019-01-08T00:03:39.347Z,96.50
2019-01-08T00:06:08.494Z,96.50
2019-01-08T00:08:40.006Z,96.50
2019-01-08T00:11:09.110Z,96.60
2019-01-08T00:13:38.180Z,96.40
2019-01-08T00:16:07.311Z,96.50
2019-01-08T00:18:36.362Z,96.50
2019-01-08T00:21:05.502Z,96.50
2019-01-08T00:23:34.576Z,96.50
2019-01-08T00:26:03.702Z,96.50
2019-01-08T00:28:32.750Z,96.50
2019-01-08T00:31:01.872Z,96.70
2019-01-08T00:33:30.942Z,96.60
2019-01-08T00:36:00.063Z,96.60
2019-01-08T00:38:29.124Z,96.70
2019-01-08T00:40:58.229Z,96.70
2019-01-08T00:43:27.303Z,96.70
2019-01-08T00:45:56.415Z,96.70
2019-01-08T00:48:25.483Z,96.80
2019-01-08T00:50:54.617Z,96.70
2019-01-08T00:53:23.659Z,96.70
2019-01-08T00:55:52.790Z,96.90
2019-01-08T00:58:21.855Z,96.70
2019-01-08T01:00:50.982Z,96.70
2019-01-08T01:03:20.148Z,96.80
2019-01-08T01:05:49.288Z,96.70
2019-01-08T01:08:18.354Z,96.60
2019-01-08T01:10:47.422Z,96.80
2019-01-08T01:13:16.540Z,96.50
2019-01-08T01:15:45.587Z,96.70
2019-01-08T01:18:14.710Z,96.60
2019-01-08T01:20:43.769Z,96.70
2019-01-08T01:23:12.875Z,96.50
2019-01-08T01:25:41.935Z,96.60
2019-01-08T01:28:11.103Z,96.60
2019-01-08T01:30:40.145Z,96.40
2019-01-08T01:33:09.253Z,96.40
2019-01-08T01:35:38.327Z,96.60
2019-01-08T01:38:07.475Z,96.60
2019-01-08T01:40:36.510Z,96.70
2019-01-08T01:43:05.669Z,96.60
2019-01-08T01:45:34.742Z,96.60
2019-01-08T01:48:03.864Z,96.80
2019-01-08T01:50:32.919Z,96.60
2019-01-08T01:53:02.161Z,96.60
2019-01-08T01:55:31.221Z,96.70
2019-01-08T01:58:00.386Z,96.80
2019-01-08T02:00:29.414Z,96.70
2019-01-08T02:02:58.433Z,96.90
2019-01-08T02:05:27.631Z,97.00
2019-01-08T02:07:56.660Z,96.90
2019-01-08T02:10:25.654Z,96.80
2019-01-08T02:12:54.590Z,96.80
2019-01-08T02:15:23.594Z,96.80
2019-01-08T02:17:52.545Z,96.80
2019-01-08T02:20:21.648Z,96.90
2019-01-08T02:22:50.598Z,96.90
2019-01-08T02:25:19.699Z,96.90
2019-01-08T02:27:48.724Z,97.30
2019-01-08T02:30:17.733Z,96.90
2019-01-08T02:32:46.752Z,96.80
2019-01-08T02:35:15.747Z,96.80
2019-01-08T02:37:44.681Z,96.90
2019-01-08T02:40:13.682Z,96.70
2019-01-08T02:42:42.725Z,96.80
2019-01-08T02:45:11.737Z,96.80
2019-01-08T02:47:40.652Z,96.70
2019-01-08T02:50:09.751Z,96.80
2019-01-08T02:52:38.694Z,96.80
2019-01-08T02:55:07.810Z,96.70
2019-01-08T02:57:36.752Z,96.80
2019-01-08T03:00:07.380Z,96.90
2019-01-08T03:02:36.533Z,96.90
2019-01-08T03:05:05.448Z,96.90
2019-01-08T03:07:34.555Z,96.80
2019-01-08T03:10:03.486Z,96.80
2019-01-08T03:12:32.690Z,96.80
2019-01-08T03:15:01.632Z,96.90
2019-01-08T03:17:32.009Z,97.00
2019-01-08T03:20:01.071Z,97.00
2019-01-08T03:22:30.169Z,97.10
2019-01-08T03:24:59.064Z,97.00
2019-01-08T03:27:28.051Z,97.00
2019-01-08T03:29:57.094Z,97.00
2019-01-08T03:32:26.169Z,97.10
2019-01-08T03:34:55.206Z,97.10
2019-01-08T03:37:24.312Z,97.20
2019-01-08T03:39:53.332Z,97.10
2019-01-08T03:42:22.414Z,97.10
2019-01-08T03:44:51.446Z,97.10
2019-01-08T03:47:20.539Z,97.30
2019-01-08T03:49:49.591Z,97.20
2019-01-08T03:52:18.722Z,97.10
2019-01-08T03:54:47.654Z,97.10
2019-01-08T03:57:16.733Z,97.10
2019-01-08T03:59:45.784Z,97.10
2019-01-08T04:02:14.813Z,97.30
2019-01-08T04:04:43.825Z,97.10
2019-01-08T04:07:12.855Z,97.10
2019-01-08T04:09:41.831Z,97.10
2019-01-08T04:12:10.874Z,97.20
2019-01-08T04:14:39.869Z,97.10
2019-01-08T04:17:08.828Z,97.30
2019-01-08T04:19:37.914Z,97.30
2019-01-08T04:22:06.966Z,97.20
2019-01-08T04:24:36.089Z,97.30
2019-01-08T04:27:05.007Z,97.30
2019-01-08T04:29:34.107Z,97.30
2019-01-08T04:32:03.044Z,97.40
2019-01-08T04:34:32.140Z,97.40
2019-01-08T04:37:01.183Z,97.30
2019-01-08T04:39:30.168Z,97.20
2019-01-08T04:41:59.106Z,97.20
2019-01-08T04:44:28.205Z,97.30
2019-01-08T04:46:57.132Z,97.20
2019-01-08T04:49:26.245Z,97.10
2019-01-08T04:51:55.289Z,97.30
2019-01-08T04:54:24.224Z,97.30
2019-01-08T04:56:53.432Z,97.40
2019-01-08T04:59:22.466Z,97.40
2019-01-08T05:01:51.566Z,97.30
2019-01-08T05:04:20.600Z,97.20
2019-01-08T05:06:49.726Z,97.30
2019-01-08T05:09:18.738Z,97.30
2019-01-08T05:11:47.857Z,97.50
2019-01-08T05:14:16.904Z,97.60
2019-01-08T05:16:45.916Z,97.50
2019-01-08T05:19:21.425Z,97.50
2019-01-08T05:21:50.586Z,97.40
2019-01-08T05:24:19.528Z,97.40
2019-01-08T05:26:48.637Z,97.40
2019-01-08T05:29:17.684Z,97.50
2019-01-08T05:31:52.879Z,97.50
2019-01-08T05:34:17.525Z,97.30
2019-01-08T05:36:48.474Z,97.30
2019-01-08T05:39:17.291Z,97.40
2019-01-08T05:41:46.423Z,97.30
2019-01-08T05:44:15.465Z,97.30
2019-01-08T05:46:44.570Z,97.40
2019-01-08T05:49:13.617Z,97.40
2019-01-08T05:51:48.220Z,97.40
2019-01-08T05:54:17.356Z,97.40
2019-01-08T05:56:46.409Z,97.70
2019-01-08T05:59:15.494Z,97.50
2019-01-08T06:01:44.547Z,97.50
2019-01-08T06:04:13.644Z,97.30
2019-01-08T06:06:43.673Z,97.30
2019-01-08T06:09:12.770Z,97.40
2019-01-08T06:11:41.794Z,97.30
2019-01-08T06:14:10.899Z,97.30
2019-01-08T06:16:39.920Z,97.20
2019-01-08T06:19:09.285Z,97.00
2019-01-08T06:21:41.089Z,97.10
2019-01-08T06:24:10.201Z,97.20
2019-01-08T06:26:39.235Z,97.10
2019-01-08T06:29:08.335Z,97.20
2019-01-08T06:31:37.260Z,97.30
2019-01-08T06:34:06.365Z,97.30
2019-01-08T06:36:35.314Z,97.50
2019-01-08T06:39:05.460Z,97.60
2019-01-08T06:41:34.486Z,97.50
2019-01-08T06:44:03.529Z,97.70
2019-01-08T06:46:32.565Z,97.70
2019-01-08T06:49:01.686Z,97.80
2019-01-08T06:51:30.609Z,98.00
2019-01-08T06:53:59.761Z,98.10
2019-01-08T06:56:28.867Z,98.20
2019-01-08T06:58:57.887Z,98.20
2019-01-08T07:01:27.120Z,98.30
2019-01-08T07:03:57.693Z,98.20
2019-01-08T07:06:26.790Z,98.00
2019-01-08T07:08:55.824Z,97.50
2019-01-08T07:11:24.958Z,97.30
2019-01-08T07:13:54.012Z,97.30
2019-01-08T07:16:23.173Z,97.10
2019-01-08T07:18:54.160Z,97.10
2019-01-08T07:21:23.027Z,97.20
2019-01-08T07:23:52.056Z,97.10
2019-01-08T07:26:21.165Z,97.10
2019-01-08T07:28:50.216Z,97.00
2019-01-08T07:31:19.312Z,96.90
2019-01-08T07:33:48.391Z,97.00
2019-01-08T07:36:17.578Z,97.00
2019-01-08T07:38:46.772Z,96.90
2019-01-08T07:41:15.960Z,97.00
2019-01-08T07:43:44.983Z,97.00
2019-01-08T07:46:14.125Z,97.00
2019-01-08T07:48:43.274Z,97.10
2019-01-08T07:51:12.446Z,96.80
2019-01-08T07:53:41.576Z,96.90
2019-01-08T07:56:11.511Z,96.80
2019-01-08T07:58:40.447Z,96.90
2019-01-08T08:01:09.574Z,96.90
2019-01-08T08:03:38.639Z,96.70
2019-01-08T08:06:07.739Z,96.70
2019-01-08T08:08:36.889Z,96.70
2019-01-08T08:11:05.970Z,96.50
2019-01-08T08:13:35.071Z,96.60
2019-01-08T08:16:08.287Z,96.50
2019-01-08T08:18:36.510Z,96.50
2019-01-08T08:21:05.592Z,96.50
2019-01-08T08:23:34.696Z,96.50
2019-01-08T08:26:06.389Z,96.30
2019-01-08T08:28:38.599Z,96.30
2019-01-08T08:31:07.691Z,96.40
2019-01-08T08:33:36.692Z,96.30
2019-01-08T08:36:16.508Z,96.30
2019-01-08T08:38:45.632Z,96.30
2019-01-08T08:41:14.796Z,96.20
2019-01-08T08:43:47.095Z,96.10
2019-01-08T08:46:16.950Z,96.30
2019-01-08T08:48:46.032Z,96.30
2019-01-08T08:51:16.904Z,96.10
2019-01-08T08:53:52.384Z,96.20
2019-01-08T08:56:16.482Z,96.40
2019-01-08T08:58:45.680Z,96.40
2019-01-08T09:01:14.613Z,96.50
2019-01-08T09:03:44.140Z,96.50
2019-01-08T09:06:13.241Z,96.40
2019-01-08T09:08:42.294Z,96.20
2019-01-08T09:11:13.194Z,96.30
2019-01-08T09:13:42.229Z,96.50
2019-01-08T09:16:11.496Z,96.40
2019-01-08T09:18:40.649Z,96.30
2019-01-08T09:21:10.315Z,96.10
2019-01-08T09:23:42.826Z,96.00
2019-01-08T09:26:14.629Z,95.60
2019-01-08T09:28:43.668Z,95.60
2019-01-08T09:31:15.629Z,95.30
2019-01-08T09:33:43.474Z,94.90
2019-01-08T09:36:12.579Z,94.90
2019-01-08T09:38:42.090Z,94.90
2019-01-08T09:41:11.354Z,95.10
2019-01-08T09:43:41.214Z,94.70
2019-01-08T09:46:11.675Z,94.40
2019-01-08T09:48:40.717Z,94.30
2019-01-08T09:51:09.835Z,94.70
2019-01-08T09:53:39.121Z,94.80
2019-01-08T09:56:08.234Z,94.80
2019-01-08T09:58:37.455Z,94.70
2019-01-08T10:01:10.352Z,94.70
2019-01-08T10:03:39.696Z,94.40
2019-01-08T10:06:08.918Z,94.20
2019-01-08T10:08:38.022Z,94.00
2019-01-08T10:11:07.441Z,93.80
2019-01-08T10:13:38.070Z,93.50
2019-01-08T10:16:07.338Z,94.20
2019-01-08T10:18:37.224Z,94.30
2019-01-08T10:21:06.347Z,93.70
2019-01-08T10:23:35.478Z,93.20
2019-01-08T10:26:04.574Z,93.30
2019-01-08T10:28:33.626Z,93.50
2019-01-08T10:31:02.673Z,92.90
2019-01-08T10:33:31.790Z,92.50
2019-01-08T10:36:04.490Z,92.80
2019-01-08T10:38:33.608Z,92.60
2019-01-08T10:41:02.672Z,91.70
2019-01-08T10:43:33.266Z,92.00
2019-01-08T10:46:02.318Z,92.50
2019-01-08T10:48:31.423Z,91.60
2019-01-08T10:51:00.460Z,91.50
2019-01-08T10:53:29.570Z,91.50
2019-01-08T10:55:58.622Z,91.40
2019-01-08T10:58:27.762Z,91.70
2019-01-08T11:00:56.797Z,92.10
2019-01-08T11:03:25.917Z,91.70
2019-01-08T11:05:54.960Z,91.30
2019-01-08T11:08:24.210Z,91.30
2019-01-08T11:10:53.253Z,91.30
2019-01-08T11:13:22.363Z,91.20
2019-01-08T11:15:51.432Z,91.30
2019-01-08T11:18:23.041Z,91.40
2019-01-08T11:20:52.189Z,90.50
2019-01-08T11:23:21.264Z,90.90
2019-01-08T11:25:50.407Z,90.50
2019-01-08T11:28:19.507Z,90.60
2019-01-08T11:30:50.499Z,90.50
2019-01-08T11:33:19.642Z,90.10
2019-01-08T11:35:48.769Z,90.00
2019-01-08T11:38:17.772Z,90.50
2019-01-08T11:40:46.903Z,90.00
2019-01-08T11:43:16.207Z,89.50
2019-01-08T11:45:45.404Z,90.00
2019-01-08T11:48:15.267Z,87.60
2019-01-08T11:50:44.475Z,86.60
2019-01-08T11:53:13.579Z,86.00
2019-01-08T11:55:42.560Z,87.10
2019-01-08T11:58:11.611Z,87.90
2019-01-08T12:00:40.748Z,87.50
2019-01-08T12:03:09.790Z,88.30
2019-01-08T12:05:38.899Z,87.30
2019-01-08T12:08:10.597Z,88.10
2019-01-08T12:10:39.736Z,89.00
2019-01-08T12:13:08.748Z,87.30
2019-01-08T12:15:37.919Z,89.10
2019-01-08T12:18:07.116Z,89.10
2019-01-08T12:20:36.040Z,90.10
2019-01-08T12:23:05.158Z,89.60
2019-01-08T12:25:34.090Z,89.00
2019-01-08T12:28:03.202Z,89.20
2019-01-08T12:30:32.250Z,89.40
2019-01-08T12:33:01.356Z,90.30
2019-01-08T12:35:30.278Z,90.10
2019-01-08T12:37:59.272Z,90.20
2019-01-08T12:40:28.347Z,90.40
2019-01-08T12:42:57.451Z,90.70
2019-01-08T12:45:26.378Z,90.60
2019-01-08T12:47:55.525Z,90.30
2019-01-08T12:50:24.548Z,90.80
2019-01-08T12:52:53.646Z,90.90
2019-01-08T12:55:22.688Z,90.80
2019-01-08T12:57:51.764Z,90.70
2019-01-08T13:00:20.844Z,91.20
2019-01-08T13:02:49.905Z,91.50
2019-01-08T13:05:18.951Z,91.90
2019-01-08T13:07:48.047Z,92.00
2019-01-08T13:10:17.088Z,92.60
2019-01-08T13:12:46.185Z,92.90
2019-01-08T13:15:15.225Z,93.00
2019-01-08T13:17:44.416Z,93.10
2019-01-08T13:20:13.464Z,93.60
2019-01-08T13:22:42.484Z,93.60
2019-01-08T13:25:11.590Z,93.70
2019-01-08T13:27:40.645Z,93.90
2019-01-08T13:30:09.750Z,94.10
2019-01-08T13:32:38.867Z,94.20
2019-01-08T13:35:07.974Z,94.40
2019-01-08T13:37:36.966Z,94.30
2019-01-08T13:40:06.755Z,94.50
2019-01-08T13:42:35.793Z,94.60
2019-01-08T13:45:05.932Z,94.60
2019-01-08T13:47:34.992Z,94.60
2019-01-08T13:50:04.119Z,94.60
2019-01-08T13:52:33.185Z,94.70
2019-01-08T13:55:02.289Z,94.60
2019-01-08T13:57:31.339Z,94.60
2019-01-08T14:00:00.444Z,94.80
2019-01-08T14:02:32.018Z,95.00
2019-01-08T14:05:00.429Z,94.60
2019-01-08T14:07:29.654Z,95.10
2019-01-08T14:09:58.777Z,94.90
2019-01-08T14:12:27.729Z,95.00
2019-01-08T14:14:56.750Z,95.00
2019-01-08T14:17:25.855Z,94.80
2019-01-08T14:19:54.902Z,94.90
2019-01-08T14:22:24.169Z,94.90
2019-01-08T14:24:53.200Z,95.30
2019-01-08T14:27:22.296Z,95.40
2019-01-08T14:29:51.421Z,95.40
2019-01-08T14:32:20.554Z,95.10
2019-01-08T14:34:49.605Z,95.20
2019-01-08T14:37:20.352Z,95.40
2019-01-08T14:39:49.611Z,95.30
2019-01-08T14:42:18.787Z,95.70
2019-01-08T14:44:47.816Z,95.30
2019-01-08T14:47:17.484Z,95.80
2019-01-08T14:49:46.683Z,95.30
2019-01-08T14:52:15.815Z,95.40
2019-01-08T14:54:44.937Z,95.70
2019-01-08T14:57:13.976Z,95.50
2019-01-08T14:59:43.027Z,95.60
2019-01-08T15:02:12.150Z,95.70
2019-01-08T15:04:41.192Z,95.70
2019-01-08T15:07:10.310Z,95.50
2019-01-08T15:09:39.344Z,95.50
2019-01-08T15:12:08.594Z,95.40
2019-01-08T15:14:37.632Z,95.50
2019-01-08T15:17:06.818Z,95.70
2019-01-08T15:19:35.912Z,95.50
2019-01-08T15:22:04.876Z,95.60
2019-01-08T15:24:34.008Z,95.50
2019-01-08T15:27:03.114Z,95.80
2019-01-08T15:29:32.123Z,95.90
2019-01-08T15:32:07.936Z,95.70
2019-01-08T15:34:37.073Z,95.70
2019-01-08T15:37:06.111Z,95.70
2019-01-08T15:39:35.232Z,95.70
2019-01-08T15:42:04.165Z,95.70
2019-01-08T15:44:33.150Z,95.90
2019-01-08T15:47:02.123Z,95.70
2019-01-08T15:49:31.121Z,95.80
2019-01-08T15:52:00.139Z,95.70
2019-01-08T15:54:29.145Z,95.70
2019-01-08T15:56:58.197Z,95.80
2019-01-08T15:59:27.394Z,96.10
2019-01-08T16:01:56.349Z,95.80
2019-01-08T16:04:25.462Z,95.70
2019-01-08T16:06:54.486Z,95.70
2019-01-08T16:09:23.902Z,95.70
2019-01-08T16:11:52.957Z,95.70
2019-01-08T16:14:22.048Z,95.90
2019-01-08T16:16:51.105Z,95.90
2019-01-08T16:19:20.200Z,95.70
2019-01-08T16:21:49.257Z,96.10
2019-01-08T16:24:18.396Z,95.90
2019-01-08T16:26:47.449Z,95.80
2019-01-08T16:29:16.505Z,95.90
2019-01-08T16:31:45.595Z,95.80
2019-01-08T16:34:14.633Z,96.30
2019-01-08T16:36:43.729Z,95.90
2019-01-08T16:39:12.790Z,95.90
2019-01-08T16:41:41.899Z,96.10
2019-01-08T16:44:10.805Z,96.00
2019-01-08T16:46:39.945Z,96.00
2019-01-08T16:49:09.005Z,95.90
2019-01-08T16:51:38.083Z,96.10
2019-01-08T16:54:07.117Z,95.90
2019-01-08T16:56:36.235Z,96.10
2019-01-08T16:59:05.286Z,96.10
2019-01-08T17:01:34.488Z,96.00
2019-01-08T17:04:04.197Z,96.00
2019-01-08T17:06:33.392Z,96.00
2019-01-08T17:09:02.327Z,95.90
2019-01-08T17:11:32.554Z,95.90
2019-01-08T17:14:01.731Z,96.00
2019-01-08T17:16:30.844Z,96.10
2019-01-08T17:19:00.336Z,96.10
2019-01-08T17:21:31.026Z,96.10
2019-01-08T17:24:03.249Z,96.20
2019-01-08T17:26:32.486Z,96.10
2019-01-08T17:29:01.542Z,96.00
2019-01-08T17:31:31.649Z,95.90
2019-01-08T17:34:00.684Z,95.80
2019-01-08T17:36:29.797Z,95.90
2019-01-08T17:38:58.861Z,96.00
2019-01-08T17:41:28.072Z,95.90
2019-01-08T17:43:57.116Z,95.70
2019-01-08T17:46:26.246Z,95.70
2019-01-08T17:48:55.286Z,95.70
2019-01-08T17:51:24.446Z,95.70
2019-01-08T17:53:53.551Z,95.30
2019-01-08T17:56:22.629Z,95.40
2019-01-08T17:58:53.823Z,95.40
2019-01-08T18:01:23.885Z,95.40
2019-01-08T18:03:53.017Z,95.60
2019-01-08T18:06:22.024Z,95.30
2019-01-08T18:08:51.141Z,95.30
2019-01-08T18:11:22.914Z,95.30
2019-01-08T18:13:52.148Z,95.50
2019-01-08T18:16:21.375Z,95.30
2019-01-08T18:18:50.472Z,95.40
2019-01-08T18:21:19.510Z,95.40
2019-01-08T18:23:49.878Z,95.10
2019-01-08T18:26:18.833Z,95.20
2019-01-08T18:28:47.961Z,95.30
2019-01-08T18:31:16.988Z,95.00
2019-01-08T18:33:51.735Z,95.00
2019-01-08T18:36:18.138Z,95.10
2019-01-08T18:38:47.195Z,95.00
2019-01-08T18:41:16.327Z,95.00
2019-01-08T18:43:46.146Z,95.10
2019-01-08T18:46:15.204Z,95.10
2019-01-08T18:48:46.773Z,95.10
2019-01-08T18:51:15.907Z,95.10
2019-01-08T18:53:45.086Z,95.00
2019-01-08T18:56:14.222Z,94.90
2019-01-08T18:58:44.925Z,94.70
2019-01-08T19:01:13.960Z,94.90
2019-01-08T19:03:43.085Z,95.10
2019-01-08T19:06:12.103Z,94.80
2019-01-08T19:09:18.003Z,94.90
2019-01-08T19:11:47.015Z,94.90
2019-01-08T19:14:17.653Z,95.10
2019-01-08T19:16:46.727Z,95.30
2019-01-08T19:19:17.456Z,95.10
2019-01-08T19:21:46.538Z,94.80
2019-01-08T19:24:15.794Z,94.50
2019-01-08T19:26:45.014Z,94.70
2019-01-08T19:29:13.934Z,94.80
2019-01-08T19:31:43.089Z,94.60
2019-01-08T19:34:12.114Z,94.40
2019-01-08T19:36:42.468Z,94.40
2019-01-08T19:39:11.549Z,94.80
2019-01-08T19:41:40.784Z,95.00
2019-01-08T19:44:09.822Z,95.10
2019-01-08T19:46:39.011Z,95.20
2019-01-08T19:49:07.984Z,95.30
2019-01-08T19:51:37.198Z,95.40
2019-01-08T19:54:06.232Z,95.50
2019-01-08T19:56:35.336Z,95.50
2019-01-08T19:59:04.428Z,95.30
2019-01-08T20:01:33.538Z,95.30
2019-01-08T20:04:03.607Z,95.20
2019-01-08T20:06:32.871Z,95.30
2019-01-08T20:09:08.272Z,95.00
2019-01-08T20:11:37.133Z,94.90
2019-01-08T20:14:06.129Z,94.90
2019-01-08T20:16:35.514Z,94.80
2019-01-08T20:19:08.669Z,94.60
2019-01-08T20:21:35.380Z,94.70
2019-01-08T20:24:06.396Z,94.60
2019-01-08T20:26:36.506Z,94.50
2019-01-08T20:29:07.120Z,94.50
2019-01-08T20:31:36.216Z,94.60
2019-01-08T20:34:05.253Z,94.80
2019-01-08T20:36:34.354Z,94.80
2019-01-08T20:39:03.454Z,94.80
2019-01-08T20:41:32.651Z,94.90
2019-01-08T20:44:01.690Z,94.80
2019-01-08T20:46:30.821Z,94.90
2019-01-08T20:49:00.065Z,94.90
2019-01-08T20:51:28.992Z,94.90
2019-01-08T20:53:59.208Z,94.80
2019-01-08T20:56:28.352Z,95.10
2019-01-08T20:58:58.199Z,94.90
2019-01-08T21:01:27.246Z,95.10
2019-01-08T21:03:56.449Z,95.10
2019-01-08T21:06:25.470Z,95.10
2019-01-08T21:08:54.578Z,95.00
2019-01-08T21:11:23.647Z,94.80
2019-01-08T21:13:52.757Z,94.90
2019-01-08T21:16:21.847Z,94.90
2019-01-08T21:18:50.921Z,94.80
2019-01-08T21:21:19.999Z,94.90
2019-01-08T21:23:49.687Z,94.90
2019-01-08T21:26:18.791Z,94.80
2019-01-08T21:28:47.839Z,95.40
2019-01-08T21:31:16.868Z,95.10
2019-01-08T21:33:47.258Z,95.00
2019-01-08T21:36:16.296Z,95.00
2019-01-08T21:38:45.424Z,95.00
2019-01-08T21:41:14.943Z,95.10
2019-01-08T21:43:44.046Z,94.90
2019-01-08T21:46:13.094Z,95.10
2019-01-08T21:48:42.331Z,95.00
2019-01-08T21:51:11.374Z,95.10
2019-01-08T21:53:40.705Z,95.10
2019-01-08T21:56:10.657Z,95.20
2019-01-08T21:58:39.678Z,95.20
2019-01-08T22:01:08.778Z,95.30
2019-01-08T22:03:37.812Z,95.70
2019-01-08T22:06:06.916Z,95.10
2019-01-08T22:08:35.972Z,95.30
2019-01-08T22:11:05.121Z,95.30
2019-01-08T22:13:34.456Z,95.30
2019-01-08T22:16:03.586Z,95.30
2019-01-08T22:18:32.616Z,95.30
2019-01-08T22:21:01.817Z,95.50
2019-01-08T22:23:30.893Z,95.30
2019-01-08T22:26:00.102Z,95.30
2019-01-08T22:28:29.137Z,95.30
2019-01-08T22:30:58.236Z,95.50
2019-01-08T22:33:27.168Z,95.40
2019-01-08T22:35:56.167Z,95.40
2019-01-08T22:38:25.258Z,95.30
2019-01-08T22:40:55.928Z,95.20
2019-01-08T22:43:24.934Z,95.50
2019-01-08T22:45:54.074Z,95.70
2019-01-08T22:48:23.102Z,95.50
2019-01-08T22:50:52.283Z,95.70
2019-01-08T22:53:21.327Z,96.00
2019-01-08T22:55:50.435Z,96.00
2019-01-08T22:58:19.910Z,96.10
2019-01-08T23:00:50.660Z,96.00
2019-01-08T23:03:19.720Z,96.00
2019-01-08T23:05:51.617Z,95.90
2019-01-08T23:08:21.943Z,95.80
2019-01-08T23:10:52.160Z,96.10
2019-01-08T23:13:21.206Z,95.80
2019-01-08T23:15:50.290Z,95.70
2019-01-08T23:18:20.945Z,95.50
2019-01-08T23:20:50.006Z,95.50
2019-01-08T23:23:19.223Z,95.50
2019-01-08T23:25:48.426Z,95.70
2019-01-08T23:28:19.072Z,96.00
2019-01-08T23:30:48.110Z,95.80
2019-01-08T23:33:17.220Z,95.90
2019-01-08T23:35:46.241Z,96.00
2019-01-08T23:38:16.909Z,96.00
2019-01-08T23:40:45.960Z,96.10
2019-01-08T23:43:15.083Z,96.20
2019-01-08T23:45:44.135Z,96.20
2019-01-08T23:48:13.223Z,96.30
2019-01-08T23:50:42.219Z,96.10
2019-01-08T23:53:12.504Z,96.10
2019-01-08T23:55:47.541Z,96.20
2019-01-08T23:58:16.645Z,96.00
